This is the latest recevied weather packets stored in our database for station/object N4OGP-WX. If no packets are shown the sender has not sent any weather packets the latest 10 day(s).
| Time | Temp. | Humidity | Pressure | Rain* | Wind** | Luminosity | Snow |
|---|---|---|---|---|---|---|---|
| 1777402398 | 26.67° C | 78% | 1016.5 hPa | 0 mm | - | - | - |
| 1777402338 | 26.67° C | 78% | 1016.5 hPa | 0 mm | - | - | - |
| 1777402278 | 23.89° C | 42% | 1020.4 hPa | 0 mm | - | - | - |
| 1777402218 | 26.67° C | 77% | 1016.5 hPa | 0 mm | - | - | - |
| 1777402158 | 26.67° C | 77% | 1016.6 hPa | 0 mm | - | - | - |
| 1777402098 | 23.89° C | 42% | 1020.4 hPa | 0 mm | - | - | - |
| 1777402008 | 26.67° C | 78% | 1016.7 hPa | 0 mm | - | - | - |
| 1777401918 | 26.67° C | 77% | 1016.8 hPa | 0 mm | - | - | - |
| 1777401828 | 26.67° C | 78% | 1016.8 hPa | 0 mm | - | - | - |
| 1777401738 | 23.89° C | 42% | 1020.4 hPa | 0 mm | - | - | - |
| 1777401678 | 26.67° C | 78% | 1016.8 hPa | 0 mm | - | - | - |
| 1777401618 | 23.89° C | 42% | 1020.4 hPa | 0 mm | - | - | - |
| 1777401558 | 26.67° C | 78% | 1016.8 hPa | 0 mm | - | - | - |
| 1777401498 | 26.67° C | 78% | 1016.8 hPa | 0 mm | - | - | - |
| 1777401408 | 26.67° C | 78% | 1016.7 hPa | 0 mm | - | - | - |
| 1777401318 | 23.89° C | 42% | 1020.4 hPa | 0 mm | - | - | - |
| 1777401258 | 26.67° C | 78% | 1016.8 hPa | 0 mm | - | - | - |
| 1777401198 | 23.89° C | 42% | 1020.4 hPa | 0 mm | - | - | - |
| 1777401138 | 26.67° C | 78% | 1016.9 hPa | 0 mm | - | - | - |
| 1777401048 | 26.67° C | 78% | 1016.9 hPa | 0 mm | - | - | - |
| 1777400988 | 23.89° C | 42% | 1020.4 hPa | 0 mm | - | - | - |
| 1777400898 | 26.67° C | 78% | 1016.8 hPa | 0 mm | - | - | - |
| 1777400838 | 23.89° C | 42% | 1020.4 hPa | 0 mm | - | - | - |
| 1777400778 | 26.67° C | 77% | 1016.9 hPa | 0 mm | - | - | - |
| 1777400718 | 26.67° C | 77% | 1017 hPa | 0 mm | - | - | - |
* Rain latest hour (hover to see other rain measurements)
** Current wind speed in m/s (hover to see current wind gust speed)